Time;durP1;ratioP1;P1;durP2;ratioP2;P2;SDS_P1;SDS_P2;PMS_P1;PMS_P2;Temp;Humidity;BMP_temperature;BMP_pressure;BME280_temperature;BME280_humidity;BME280_pressure;Samples;Min_cycle;Max_cycle;Signal;HPM_P1;HPM_P2
2022/06/18 00:02:11;;;;;;;9.53;3.27;;;;;;;25.71;39.18;101723.94;5170818;28;1836558;-42
2022/06/18 00:04:44;;;;;;;10.00;3.72;;;;;;;25.66;39.28;101712.97;5240034;28;20808;-43
2022/06/18 00:07:20;;;;;;;12.40;3.33;;;;;;;25.66;39.38;101712.16;5239964;28;20433;-45
2022/06/18 00:10:01;;;;;;;10.73;3.13;;;;;;;25.64;39.46;101720.53;5246086;28;20433;-44
2022/06/18 00:15:27;;;;;;;9.75;3.58;;;;;;;25.51;39.90;101699.03;5240228;28;20430;-43
2022/06/18 00:18:01;;;;;;;9.87;3.50;;;;;;;25.51;39.92;101709.84;5243551;28;20545;-42
2022/06/18 00:20:36;;;;;;;8.15;3.30;;;;;;;25.27;40.06;101669.19;5245015;28;20859;-43
2022/06/18 00:23:15;;;;;;;10.63;3.13;;;;;;;25.51;40.10;101723.38;5240195;28;20405;-43
2022/06/18 00:25:50;;;;;;;8.38;3.05;;;;;;;25.45;40.38;101727.00;5241932;28;20423;-42
2022/06/18 00:28:26;;;;;;;13.10;3.90;;;;;;;25.52;40.37;101743.97;5243144;28;20439;-44
2022/06/18 00:30:58;;;;;;;7.70;3.03;;;;;;;25.33;40.66;101718.00;5239971;28;20768;-44
2022/06/18 00:33:35;;;;;;;9.03;3.40;;;;;;;25.37;40.57;101725.44;5249233;28;20402;-44
2022/06/18 00:36:14;;;;;;;15.55;4.03;;;;;;;25.38;40.85;101742.47;5245283;28;20405;-44
2022/06/18 00:38:48;;;;;;;14.23;3.35;;;;;;;25.07;40.92;101692.91;5234900;28;20442;-43
2022/06/18 00:41:26;;;;;;;13.95;3.80;;;;;;;25.30;41.17;101730.94;5241435;28;20510;-46
2022/06/18 00:44:02;;;;;;;7.40;3.53;;;;;;;25.24;41.16;101739.94;5241198;28;20420;-43
2022/06/18 00:46:42;;;;;;;12.85;3.75;;;;;;;25.19;41.48;101739.78;5240590;28;20505;-43
2022/06/18 00:49:22;;;;;;;12.23;3.35;;;;;;;25.13;41.61;101737.16;5239885;28;20414;-42
2022/06/18 00:52:03;;;;;;;17.40;4.07;;;;;;;24.82;41.80;101701.88;5243014;28;20855;-42
2022/06/18 00:54:41;;;;;;;11.60;4.50;;;;;;;24.94;42.03;101730.88;5241898;28;20541;-44
2022/06/18 00:57:19;;;;;;;10.57;4.15;;;;;;;24.68;42.10;101700.34;5239050;28;20406;-46
2022/06/18 00:59:57;;;;;;;14.93;4.35;;;;;;;24.69;42.46;101720.94;5234711;28;20415;-46
2022/06/18 01:02:37;;;;;;;9.70;4.07;;;;;;;24.65;42.39;101717.00;5244166;28;20469;-44
2022/06/18 01:05:23;;;;;;;12.13;4.75;;;;;;;24.64;42.51;101726.16;5239435;28;20545;-46
2022/06/18 01:08:00;;;;;;;13.27;4.75;;;;;;;24.59;42.90;101729.56;5239584;28;20506;-44
2022/06/18 01:10:36;;;;;;;9.23;3.85;;;;;;;24.50;43.02;101727.34;5238773;28;20420;-45
2022/06/18 01:13:11;;;;;;;13.90;4.63;;;;;;;24.06;43.17;101673.25;5237119;28;20853;-43
2022/06/18 01:15:45;;;;;;;14.98;4.80;;;;;;;24.25;43.38;101719.19;5234774;28;20455;-44
2022/06/18 01:18:17;;;;;;;15.52;4.45;;;;;;;24.25;43.56;101722.75;5233144;28;20551;-43
2022/06/18 01:20:55;;;;;;;10.95;4.55;;;;;;;24.01;43.70;101694.66;5239861;28;20441;-46
2022/06/18 01:23:35;;;;;;;20.40;5.45;;;;;;;24.11;43.92;101721.16;5242129;28;20929;-44
2022/06/18 01:26:11;;;;;;;17.67;5.40;;;;;;;23.98;44.18;101710.47;5243445;28;20949;-43
2022/06/18 01:28:43;;;;;;;12.00;4.68;;;;;;;23.95;44.36;101719.00;5242831;28;20425;-43
2022/06/18 01:31:16;;;;;;;16.50;5.43;;;;;;;23.85;44.54;101717.59;5245030;28;20511;-44
2022/06/18 01:34:16;;;;;;;19.00;6.18;;;;;;;23.82;44.75;101709.94;5239015;28;20421;-43
2022/06/18 01:36:48;;;;;;;17.52;5.80;;;;;;;23.70;44.90;101703.59;5234341;28;20968;-44
2022/06/18 01:39:26;;;;;;;18.87;5.77;;;;;;;23.34;45.10;101642.94;5239264;28;20505;-44
2022/06/18 01:42:05;;;;;;;20.70;6.37;;;;;;;23.69;45.18;101710.00;5239178;28;23161;-44
2022/06/18 01:44:49;;;;;;;20.38;6.28;;;;;;;23.58;45.28;101694.47;5248175;28;20441;-44
2022/06/18 01:47:26;;;;;;;21.55;6.20;;;;;;;23.60;45.67;101703.16;5243346;28;21026;-43
2022/06/18 01:50:09;;;;;;;12.63;5.68;;;;;;;23.53;45.85;101697.00;5239620;28;20525;-44
2022/06/18 01:52:47;;;;;;;18.35;6.68;;;;;;;23.48;45.93;101705.75;5238492;28;20454;-44
2022/06/18 01:55:24;;;;;;;15.48;6.50;;;;;;;23.39;46.34;101707.84;5238421;28;20466;-42
2022/06/18 01:58:03;;;;;;;25.58;7.57;;;;;;;23.33;46.15;101718.66;5240023;28;20474;-42
2022/06/18 02:00:36;;;;;;;19.58;8.00;;;;;;;23.32;46.50;101708.88;5237517;28;20577;-42
2022/06/18 02:03:09;;;;;;;22.65;7.68;;;;;;;23.22;46.62;101714.75;5241839;28;20401;-40
2022/06/18 02:05:42;;;;;;;19.65;7.22;;;;;;;23.26;46.82;101718.69;5232592;28;20430;-43
2022/06/18 02:08:18;;;;;;;22.83;7.97;;;;;;;22.99;47.03;101685.59;5236936;28;20772;-45
2022/06/18 02:10:54;;;;;;;29.48;8.95;;;;;;;23.15;47.00;101719.31;5243162;28;20483;-41
2022/06/18 02:13:35;;;;;;;23.05;7.68;;;;;;;23.12;47.11;101727.84;5237481;28;20446;-42
2022/06/18 02:16:14;;;;;;;25.45;7.53;;;;;;;23.08;47.35;101723.91;5238242;28;20459;-46
2022/06/18 02:18:50;;;;;;;25.88;8.88;;;;;;;23.04;47.59;101730.75;5239828;28;20762;-42
2022/06/18 02:21:25;;;;;;;19.35;8.20;;;;;;;22.92;47.57;101709.81;5230680;28;20459;-42
2022/06/18 02:23:57;;;;;;;26.60;8.35;;;;;;;22.88;47.67;101711.25;5238718;28;20475;-43
2022/06/18 02:26:31;;;;;;;24.88;8.90;;;;;;;22.90;47.72;101724.53;5244071;28;20412;-43
2022/06/18 02:29:05;;;;;;;20.15;9.23;;;;;;;22.77;48.05;101706.53;5239319;28;20459;-42
2022/06/18 02:31:39;;;;;;;20.58;8.23;;;;;;;22.75;48.15;101720.19;5240351;28;20438;-43
2022/06/18 02:34:16;;;;;;;23.10;8.90;;;;;;;22.71;48.38;101716.28;5236532;28;20538;-44
2022/06/18 02:36:48;;;;;;;23.00;9.25;;;;;;;22.63;48.49;101711.09;5243791;28;20847;-44
2022/06/18 02:39:27;;;;;;;31.60;9.82;;;;;;;22.59;48.80;101720.63;5236702;28;20420;-47
2022/06/18 02:42:06;;;;;;;23.65;9.20;;;;;;;22.57;48.74;101728.09;5239834;28;20403;-48
2022/06/18 02:44:44;;;;;;;25.90;8.77;;;;;;;22.42;48.85;101711.31;5238417;28;20410;-41
2022/06/18 02:47:20;;;;;;;24.30;9.35;;;;;;;22.48;48.89;101727.47;5238576;28;20917;-45
2022/06/18 02:50:02;;;;;;;31.73;9.13;;;;;;;22.50;49.26;101719.19;5242097;28;20444;-43
2022/06/18 02:52:40;;;;;;;21.88;8.48;;;;;;;22.14;49.32;101677.31;5239420;28;20461;-43
2022/06/18 02:55:25;;;;;;;23.80;8.88;;;;;;;22.45;49.40;101725.22;5236975;28;20453;-44
2022/06/18 02:58:03;;;;;;;23.42;7.93;;;;;;;22.42;49.51;101733.69;5239417;28;20774;-45
2022/06/18 03:00:39;;;;;;;21.63;9.45;;;;;;;22.35;49.55;101732.84;5236482;28;20516;-43
2022/06/18 03:03:18;;;;;;;25.35;9.32;;;;;;;22.37;49.46;101746.94;5231881;28;20467;-45
2022/06/18 03:05:52;;;;;;;26.00;8.93;;;;;;;22.27;49.69;101735.75;5234753;28;20450;-43
2022/06/18 03:08:28;;;;;;;26.48;9.73;;;;;;;22.31;49.79;101742.38;5233429;28;20548;-45
2022/06/18 03:13:51;;;;;;;21.35;8.05;;;;;;;22.12;50.23;101722.44;5236315;28;20620;-44
2022/06/18 03:16:26;;;;;;;22.75;9.10;;;;;;;22.22;50.13;101748.97;5237383;28;20418;-44
2022/06/18 03:19:00;;;;;;;22.92;7.80;;;;;;;22.11;50.17;101747.66;5242794;28;20481;-49
2022/06/18 03:21:36;;;;;;;24.63;8.10;;;;;;;22.10;50.57;101746.03;5248081;28;20814;-43
2022/06/18 03:24:10;;;;;;;22.35;7.78;;;;;;;22.14;50.49;101757.19;5241096;28;20422;-40
2022/06/18 03:26:42;;;;;;;24.50;7.50;;;;;;;22.03;50.48;101743.31;5235387;28;20540;-44
2022/06/18 03:29:16;;;;;;;17.95;8.27;;;;;;;22.09;50.51;101763.22;5241670;28;20417;-44
2022/06/18 03:31:50;;;;;;;21.30;8.02;;;;;;;22.04;50.61;101752.22;5243786;28;20425;-45
2022/06/18 03:34:22;;;;;;;25.65;8.50;;;;;;;22.00;50.65;101756.34;5236265;28;20458;-45
2022/06/18 03:36:56;;;;;;;26.52;8.02;;;;;;;21.80;50.61;101729.38;5242382;28;20433;-42
2022/06/18 03:39:29;;;;;;;27.27;8.98;;;;;;;22.01;50.73;101753.44;5238064;28;20563;-42
2022/06/18 03:42:01;;;;;;;18.98;8.13;;;;;;;21.95;50.79;101743.50;5240040;28;20507;-42
2022/06/18 03:44:34;;;;;;;20.00;8.18;;;;;;;21.97;50.86;101757.59;5236979;28;20414;-42
2022/06/18 03:47:08;;;;;;;21.87;8.33;;;;;;;22.00;50.97;101757.19;5241776;28;20501;-45
2022/06/18 03:49:40;;;;;;;21.50;7.55;;;;;;;22.04;50.79;101765.66;5235593;28;20405;-43
2022/06/18 03:52:13;;;;;;;24.50;8.88;;;;;;;22.02;50.90;101765.88;5237513;28;20513;-44
2022/06/18 03:54:45;;;;;;;20.00;8.10;;;;;;;22.04;51.01;101758.41;5240127;28;20410;-44
2022/06/18 03:57:20;;;;;;;18.13;8.18;;;;;;;21.69;50.93;101700.44;5238006;28;20439;-44
2022/06/18 03:59:52;;;;;;;30.38;8.25;;;;;;;22.07;50.89;101763.41;5241139;28;20492;-43
2022/06/18 04:02:26;;;;;;;23.02;8.20;;;;;;;22.05;51.03;101757.41;5235631;28;20428;-43
2022/06/18 04:04:58;;;;;;;19.50;7.80;;;;;;;22.08;51.13;101757.00;5237953;28;20414;-43
2022/06/18 04:07:31;;;;;;;21.95;8.15;;;;;;;21.87;51.06;101724.88;5236607;28;20394;-42
2022/06/18 04:10:04;;;;;;;22.05;7.55;;;;;;;22.07;51.20;101760.72;5237769;28;20493;-42
2022/06/18 04:12:37;;;;;;;17.03;6.97;;;;;;;21.98;51.20;101748.47;5237681;28;20497;-44
2022/06/18 04:15:12;;;;;;;18.40;7.22;;;;;;;22.05;51.12;101753.88;5236017;28;20396;-43
2022/06/18 04:17:47;;;;;;;22.20;8.17;;;;;;;22.10;51.11;101757.59;5238715;28;20469;-46
2022/06/18 04:20:24;;;;;;;20.30;7.45;;;;;;;21.85;51.19;101721.56;5240534;28;20418;-44
2022/06/18 04:22:57;;;;;;;20.00;8.45;;;;;;;22.12;51.08;101759.28;5238971;28;20432;-44
2022/06/18 04:25:30;;;;;;;19.55;7.68;;;;;;;22.21;51.06;101758.09;5238144;28;20403;-42
2022/06/18 04:28:02;;;;;;;25.83;8.03;;;;;;;22.27;50.96;101757.28;5242789;28;20494;-46
2022/06/18 04:30:34;;;;;;;22.45;8.88;;;;;;;22.24;50.92;101746.94;5241195;28;20480;-45
2022/06/18 04:33:09;;;;;;;17.97;7.80;;;;;;;22.34;51.01;101758.09;5237790;28;20487;-42
2022/06/18 04:35:42;;;;;;;19.27;7.43;;;;;;;22.35;50.95;101743.59;5238365;28;20493;-42
2022/06/18 04:38:14;;;;;;;16.45;6.13;;;;;;;22.38;50.91;101743.19;5240514;28;20503;-43
2022/06/18 04:40:47;;;;;;;18.00;6.88;;;;;;;22.49;50.84;101742.59;5243906;28;20439;-42
2022/06/18 04:43:20;;;;;;;21.63;7.40;;;;;;;22.61;50.60;101748.19;5233895;28;20418;-43
2022/06/18 04:45:53;;;;;;;18.20;6.38;;;;;;;22.55;50.88;101747.16;5232919;28;20575;-44
2022/06/18 04:48:27;;;;;;;16.75;6.28;;;;;;;22.67;50.65;101752.75;5223836;28;20461;-42
2022/06/18 04:50:59;;;;;;;20.63;6.50;;;;;;;22.73;50.54;101740.28;5245325;28;20438;-44
2022/06/18 04:53:32;;;;;;;18.02;6.13;;;;;;;22.90;50.27;101752.28;5245737;28;20426;-43
2022/06/18 04:56:05;;;;;;;21.08;6.78;;;;;;;23.00;50.23;101744.63;5240831;28;20944;-43
2022/06/18 04:58:37;;;;;;;22.30;6.55;;;;;;;23.15;49.99;101755.19;5249119;28;20545;-43
2022/06/18 05:01:15;;;;;;;23.77;6.73;;;;;;;23.19;49.76;101742.09;5238509;28;20409;-44
2022/06/18 05:03:49;;;;;;;15.43;5.75;;;;;;;23.46;49.51;101765.25;5241339;28;20475;-43
2022/06/18 05:06:21;;;;;;;21.60;5.93;;;;;;;23.79;49.23;101756.22;5236199;28;20500;-42
2022/06/18 05:08:54;;;;;;;15.05;5.63;;;;;;;24.28;48.54;101759.25;5247780;28;20440;-44
2022/06/18 05:11:26;;;;;;;12.98;5.80;;;;;;;24.83;47.91;101762.97;5242140;28;20505;-44
2022/06/18 05:13:59;;;;;;;13.52;5.85;;;;;;;25.39;47.28;101760.34;5235542;28;22845;-44
2022/06/18 05:16:31;;;;;;;19.83;5.25;;;;;;;25.93;46.70;101761.38;5236599;28;20467;-45
2022/06/18 05:19:05;;;;;;;17.58;5.40;;;;;;;26.45;45.93;101754.31;5242553;28;20504;-46
2022/06/18 05:21:37;;;;;;;15.77;5.82;;;;;;;26.65;45.32;101721.50;5250323;28;20840;-48
2022/06/18 05:24:10;;;;;;;14.20;4.63;;;;;;;27.46;44.62;101762.31;5235553;28;20414;-45
2022/06/18 05:26:45;;;;;;;12.18;4.63;;;;;;;28.01;43.91;101778.06;5236438;28;20515;-47
2022/06/18 05:29:18;;;;;;;11.23;4.43;;;;;;;28.43;43.23;101766.91;5240490;28;20508;-48
2022/06/18 05:31:50;;;;;;;15.10;4.32;;;;;;;28.90;42.67;101769.25;5244830;28;20677;-45
2022/06/18 05:34:24;;;;;;;13.45;5.35;;;;;;;29.41;42.02;101775.38;5239669;28;20414;-45
2022/06/18 05:36:57;;;;;;;15.32;5.05;;;;;;;29.79;41.19;101776.41;5237126;28;20512;-47
2022/06/18 05:39:29;;;;;;;18.60;4.57;;;;;;;30.24;40.66;101775.25;5240925;28;20418;-44
2022/06/18 05:42:01;;;;;;;11.68;5.10;;;;;;;30.63;40.21;101775.00;5240595;28;20409;-46
2022/06/18 05:44:37;;;;;;;17.95;5.50;;;;;;;31.07;39.62;101782.94;5237510;28;20536;-49
2022/06/18 05:47:16;;;;;;;18.67;4.65;;;;;;;31.35;38.96;101770.00;5234397;28;20853;-48
2022/06/18 05:49:50;;;;;;;17.50;4.88;;;;;;;31.76;38.44;101778.34;5236065;28;20428;-47
2022/06/18 05:52:24;;;;;;;10.88;3.58;;;;;;;32.02;38.12;101769.09;5242621;28;20765;-47
2022/06/18 05:54:56;;;;;;;15.52;4.50;;;;;;;32.33;37.67;101780.06;5235869;28;20945;-49
2022/06/18 05:57:28;;;;;;;12.37;3.73;;;;;;;32.62;37.04;101776.81;5240418;28;20502;-45
2022/06/18 06:00:07;;;;;;;13.18;4.20;;;;;;;32.91;36.76;101785.22;5246489;28;20478;-47
2022/06/18 06:02:39;;;;;;;10.32;4.13;;;;;;;33.08;36.41;101784.94;5234242;28;20425;-42
2022/06/18 06:05:14;;;;;;;13.43;3.83;;;;;;;33.33;35.85;101782.13;5228913;28;20427;-46
2022/06/18 06:07:48;;;;;;;12.13;3.30;;;;;;;33.64;35.74;101798.44;5230600;28;20514;-50
2022/06/18 06:13:15;;;;;;;10.88;3.63;;;;;;;34.09;34.56;101794.59;5232198;28;20415;-45
2022/06/18 06:15:48;;;;;;;11.30;3.88;;;;;;;34.20;34.45;101795.34;5214880;28;20420;-45
2022/06/18 06:18:23;;;;;;;12.77;3.95;;;;;;;34.39;34.05;101793.53;5226423;28;20411;-48
2022/06/18 06:20:59;;;;;;;9.35;3.80;;;;;;;34.57;34.09;101783.00;5231529;28;20902;-46
2022/06/18 06:23:32;;;;;;;13.13;3.55;;;;;;;34.82;33.34;101795.66;5230433;28;22257;-49
2022/06/18 06:26:06;;;;;;;12.48;4.13;;;;;;;35.01;33.23;101788.28;5235926;28;20408;-46
2022/06/18 06:28:43;;;;;;;8.33;3.10;;;;;;;35.21;33.19;101797.41;5239153;28;20475;-47
2022/06/18 06:31:15;;;;;;;11.90;3.65;;;;;;;35.29;32.79;101800.34;5234596;28;20510;-46
2022/06/18 06:33:48;;;;;;;12.73;3.25;;;;;;;35.13;32.81;101746.72;5235526;28;20981;-48
2022/06/18 06:36:21;;;;;;;10.60;3.38;;;;;;;35.77;32.47;101804.94;5238585;28;20518;-48
2022/06/18 06:38:54;;;;;;;8.20;3.38;;;;;;;35.83;32.14;101809.25;5233618;28;20970;-47
2022/06/18 06:41:29;;;;;;;12.98;3.20;;;;;;;35.71;32.13;101762.16;5240632;28;21079;-47
2022/06/18 06:44:02;;;;;;;10.15;3.30;;;;;;;36.18;32.12;101816.19;5234436;28;20483;-47
2022/06/18 06:46:34;;;;;;;9.98;3.65;;;;;;;36.11;31.74;101803.94;5229739;28;20427;-48
2022/06/18 06:49:07;;;;;;;9.30;2.97;;;;;;;36.28;31.86;101804.19;5236232;28;20402;-45
2022/06/18 06:51:41;;;;;;;11.18;3.00;;;;;;;36.41;31.41;101802.59;5230118;28;20412;-43
2022/06/18 06:54:14;;;;;;;10.13;2.97;;;;;;;36.40;31.45;101809.25;5229845;28;20873;-46
2022/06/18 06:59:37;;;;;;;6.97;2.83;;;;;;;36.57;31.37;101801.25;5233695;28;20510;-49
2022/06/18 07:02:13;;;;;;;11.13;3.10;;;;;;;36.87;30.96;101805.38;5230128;28;20437;-48
2022/06/18 07:04:45;;;;;;;15.52;3.28;;;;;;;37.09;30.71;101812.97;5228073;28;20509;-47
2022/06/18 07:07:19;;;;;;;10.07;2.85;;;;;;;36.80;30.80;101793.16;5226580;28;20491;-48
2022/06/18 07:09:51;;;;;;;9.05;3.05;;;;;;;36.86;30.82;101819.47;5217841;28;20858;-47
2022/06/18 07:12:24;;;;;;;6.07;2.60;;;;;;;36.55;31.15;101824.69;5231532;28;20772;-48
2022/06/18 07:14:56;;;;;;;7.83;3.07;;;;;;;36.56;30.99;101835.41;5230983;28;20851;-46
2022/06/18 07:17:29;;;;;;;9.85;3.10;;;;;;;36.67;30.64;101833.25;5214077;28;20415;-49
2022/06/18 07:20:02;;;;;;;8.80;3.30;;;;;;;36.65;30.48;101819.81;5227359;28;20533;-47
2022/06/18 07:22:35;;;;;;;10.27;3.05;;;;;;;36.74;30.63;101832.91;5229187;28;20475;-45
2022/06/18 07:25:10;;;;;;;7.85;2.80;;;;;;;36.92;30.32;101841.06;5225767;28;20489;-48
2022/06/18 07:27:43;;;;;;;12.27;3.20;;;;;;;37.03;30.16;101843.66;5237250;28;20762;-49
2022/06/18 07:30:15;;;;;;;12.55;2.90;;;;;;;37.07;30.41;101842.75;5239184;28;20422;-50
2022/06/18 07:32:50;;;;;;;10.02;2.55;;;;;;;37.01;30.27;101849.50;5249425;28;20993;-47
2022/06/18 07:35:25;;;;;;;7.40;2.53;;;;;;;37.01;30.08;101840.38;5239481;28;20414;-49
2022/06/18 07:37:59;;;;;;;10.35;2.97;;;;;;;37.07;30.33;101847.44;5243011;28;20497;-48
2022/06/18 07:40:36;;;;;;;7.45;2.47;;;;;;;37.01;30.29;101848.66;5246577;28;20402;-46
2022/06/18 07:43:10;;;;;;;9.90;2.95;;;;;;;36.79;30.35;101846.53;5238936;28;20436;-47
2022/06/18 07:45:44;;;;;;;6.18;2.17;;;;;;;36.68;30.57;101849.50;5246203;28;20824;-45
2022/06/18 07:48:17;;;;;;;6.97;2.58;;;;;;;36.42;30.84;101843.59;5248566;28;20808;-49
2022/06/18 07:50:50;;;;;;;6.32;2.22;;;;;;;35.94;31.15;101853.94;5247719;28;20798;-46
2022/06/18 07:53:26;;;;;;;9.13;2.58;;;;;;;35.65;31.21;101834.78;5242255;28;20418;-46
2022/06/18 07:55:59;;;;;;;4.70;2.03;;;;;;;35.88;31.04;101835.88;5247706;28;20407;-45
2022/06/18 07:58:32;;;;;;;6.43;2.22;;;;;;;36.00;31.03;101831.56;5249585;28;20436;-45
2022/06/18 08:01:05;;;;;;;7.10;2.67;;;;;;;36.21;30.66;101829.34;5248707;28;20547;-46
2022/06/18 08:03:38;;;;;;;7.43;1.73;;;;;;;36.35;30.74;101831.31;5248054;28;20477;-47
2022/06/18 08:06:11;;;;;;;9.48;2.13;;;;;;;36.47;30.64;101834.41;5246126;28;21005;-49
2022/06/18 08:08:45;;;;;;;8.32;2.13;;;;;;;36.41;30.49;101830.13;5247928;28;20449;-49
2022/06/18 08:11:20;;;;;;;5.95;1.58;;;;;;;36.02;31.01;101834.03;5249633;28;20852;-46
2022/06/18 08:13:53;;;;;;;10.07;3.08;;;;;;;35.82;31.08;101820.56;5250263;28;20481;-49
2022/06/18 08:16:26;;;;;;;13.73;6.47;;;;;;;35.66;31.25;101818.03;5249647;28;20420;-46
2022/06/18 08:18:58;;;;;;;41.00;27.90;;;;;;;35.39;31.55;101809.56;5250870;28;20414;-47
2022/06/18 08:21:35;;;;;;;7.15;3.20;;;;;;;35.43;31.42;101810.59;5250001;28;20781;-45
2022/06/18 08:24:12;;;;;;;8.13;2.55;;;;;;;35.55;30.81;101802.78;5249319;28;20402;-47
2022/06/18 08:26:47;;;;;;;5.40;2.13;;;;;;;35.43;31.22;101816.09;5247276;28;20815;-46
2022/06/18 08:29:23;;;;;;;9.98;2.03;;;;;;;34.53;31.61;101803.84;5252424;28;20444;-50
2022/06/18 08:31:56;;;;;;;5.47;1.77;;;;;;;33.99;32.39;101805.63;5254734;28;20409;-46
2022/06/18 08:34:28;;;;;;;3.88;1.67;;;;;;;33.86;32.42;101807.06;5252130;28;20425;-48
2022/06/18 08:37:04;;;;;;;4.45;1.50;;;;;;;34.02;31.81;101817.94;5252630;28;20892;-47
2022/06/18 08:39:39;;;;;;;23.23;13.40;;;;;;;34.29;31.50;101821.06;5241894;28;20490;-47
2022/06/18 08:42:40;;;;;;;7.18;2.15;;;;;;;34.27;31.49;101820.53;5248898;28;20457;-47
2022/06/18 08:45:34;;;;;;;9.55;3.65;;;;;;;34.22;31.27;101826.03;5244658;28;20967;-47
2022/06/18 08:48:56;;;;;;;9.40;2.00;;;;;;;33.44;32.16;101815.75;5247324;28;20456;-46
2022/06/18 08:51:38;;;;;;;13.57;9.77;;;;;;;33.26;32.10;101815.28;5245147;28;20412;-46
2022/06/18 08:54:35;;;;;;;8.27;2.17;;;;;;;32.71;32.53;101817.00;5233740;28;20560;-45
2022/06/18 08:57:17;;;;;;;9.18;5.00;;;;;;;32.02;32.99;101809.28;5239213;28;20422;-46
2022/06/18 09:00:03;;;;;;;5.40;3.13;;;;;;;32.06;32.89;101813.94;5232273;28;20507;-47
2022/06/18 09:02:42;;;;;;;7.13;4.38;;;;;;;32.30;32.86;101810.69;5241406;28;20475;-48
2022/06/18 09:05:25;;;;;;;7.78;2.22;;;;;;;32.21;33.05;101807.69;5238160;28;20954;-45
2022/06/18 09:08:20;;;;;;;20.50;9.70;;;;;;;32.23;32.86;101812.88;5240646;28;20420;-44
2022/06/18 09:11:16;;;;;;;8.68;3.67;;;;;;;32.39;32.77;101819.97;5232614;28;20436;-49
2022/06/18 09:13:57;;;;;;;7.97;3.47;;;;;;;32.62;32.41;101820.56;5223801;28;20426;-44
2022/06/18 09:16:36;;;;;;;7.68;3.97;;;;;;;32.96;32.37;101829.00;5235861;28;23456;-46
2022/06/18 09:19:14;;;;;;;4.90;1.80;;;;;;;32.90;32.58;101832.84;5237469;28;20444;-46
2022/06/18 09:21:52;;;;;;;15.70;3.78;;;;;;;32.88;32.55;101824.91;5243540;28;20407;-47
2022/06/18 09:24:30;;;;;;;7.85;2.60;;;;;;;32.98;32.33;101835.84;5239290;28;20416;-46
2022/06/18 09:27:08;;;;;;;15.75;8.15;;;;;;;32.83;32.60;101800.31;5233462;28;20471;-45
2022/06/18 09:29:46;;;;;;;18.80;6.88;;;;;;;32.81;32.73;101813.44;5220987;28;20428;-46
2022/06/18 09:32:26;;;;;;;16.05;8.88;;;;;;;32.59;32.94;101811.81;5229960;28;20457;-48
2022/06/18 09:35:02;;;;;;;25.50;10.43;;;;;;;32.25;33.34;101821.63;5247085;28;20973;-50
2022/06/18 09:37:40;;;;;;;7.10;1.80;;;;;;;32.12;33.45;101809.31;5249389;28;20509;-44
2022/06/18 09:40:21;;;;;;;4.03;1.75;;;;;;;32.33;33.31;101816.44;5249369;28;21119;-49
2022/06/18 09:43:04;;;;;;;6.90;2.28;;;;;;;32.58;32.97;101809.34;5240879;28;20789;-46
2022/06/18 09:45:46;;;;;;;5.78;1.85;;;;;;;32.87;32.77;101830.66;5245347;28;20434;-48
2022/06/18 09:48:19;;;;;;;6.60;3.40;;;;;;;32.63;32.95;101816.72;5241903;28;20754;-45
2022/06/18 09:50:55;;;;;;;5.65;2.53;;;;;;;32.58;33.00;101812.91;5239837;28;20496;-46
2022/06/18 09:53:33;;;;;;;5.32;1.92;;;;;;;32.22;33.37;101816.69;5240061;28;20499;-44
2022/06/18 09:56:10;;;;;;;5.53;2.25;;;;;;;32.10;33.40;101798.63;5236935;28;20947;-47
2022/06/18 09:58:48;;;;;;;7.85;2.70;;;;;;;31.72;33.84;101782.69;5236989;28;21844;-43
2022/06/18 10:01:31;;;;;;;3.70;1.50;;;;;;;31.36;34.22;101782.56;5215725;28;20430;-45
2022/06/18 10:06:58;;;;;;;3.63;1.42;;;;;;;31.28;34.42;101791.22;5213854;28;20421;-44
2022/06/18 10:09:37;;;;;;;5.03;1.80;;;;;;;31.00;34.73;101757.78;5213615;28;20917;-47
2022/06/18 10:12:19;;;;;;;3.72;1.40;;;;;;;31.03;34.72;101773.63;5211845;28;20418;-46
2022/06/18 10:14:55;;;;;;;7.90;1.60;;;;;;;30.98;34.89;101770.91;5213655;28;20419;-45
2022/06/18 10:18:01;;;;;;;4.68;1.40;;;;;;;31.06;34.74;101773.09;5217694;28;20522;-43
2022/06/18 10:20:42;;;;;;;3.47;1.25;;;;;;;31.10;34.77;101766.06;5208019;28;20529;-44
2022/06/18 10:23:27;;;;;;;2.13;1.13;;;;;;;30.96;35.13;101762.97;5208673;28;20440;-49
2022/06/18 10:26:13;;;;;;;5.20;1.35;;;;;;;30.56;35.55;101745.22;5213752;28;20398;-49
2022/06/18 10:28:59;;;;;;;3.90;1.27;;;;;;;30.78;35.24;101741.56;5208828;28;20508;-46
2022/06/18 10:31:50;;;;;;;2.03;1.15;;;;;;;30.97;35.26;101763.78;5214472;28;20408;-48
2022/06/18 10:34:40;;;;;;;5.80;1.55;;;;;;;30.86;35.38;101757.47;5210532;28;20505;-46
2022/06/18 10:37:27;;;;;;;3.87;1.40;;;;;;;30.89;35.67;101767.84;5213052;28;20408;-46
2022/06/18 10:44:15;;;;;;;2.97;1.10;;;;;;;31.43;35.17;101766.75;5203122;28;20402;-52
2022/06/18 10:46:58;;;;;;;12.32;3.33;;;;;;;31.67;34.92;101757.00;5204443;28;20421;-50
2022/06/18 10:49:32;;;;;;;68.18;31.98;;;;;;;31.61;34.94;101752.63;5210515;28;20416;-49
2022/06/18 10:52:05;;;;;;;19.88;9.68;;;;;;;31.16;35.71;101745.88;5216415;28;20417;-50
2022/06/18 10:54:38;;;;;;;4.93;1.80;;;;;;;30.73;36.02;101736.09;5194030;28;20801;-50
2022/06/18 10:57:24;;;;;;;3.90;1.55;;;;;;;30.99;35.84;101761.63;5204008;28;20510;-48
2022/06/18 10:59:56;;;;;;;25.92;10.65;;;;;;;30.94;35.81;101726.13;5211177;28;20515;-46
2022/06/18 11:02:36;;;;;;;10.55;2.17;;;;;;;31.20;35.66;101757.91;5222087;28;20429;-47
2022/06/18 11:05:24;;;;;;;3.65;1.33;;;;;;;31.18;35.59;101738.25;5233384;28;20449;-47
2022/06/18 11:08:00;;;;;;;5.15;1.70;;;;;;;31.78;35.03;101762.50;5236095;28;20426;-50
2022/06/18 11:10:39;;;;;;;4.35;1.35;;;;;;;32.12;34.57;101769.13;5234931;28;20404;-48
2022/06/18 11:13:21;;;;;;;5.78;1.75;;;;;;;31.84;35.07;101766.88;5229863;28;20477;-44
2022/06/18 11:16:11;;;;;;;4.65;1.60;;;;;;;31.89;35.11;101765.00;5232330;28;20580;-49
2022/06/18 11:18:51;;;;;;;4.73;1.50;;;;;;;32.04;34.75;101747.81;5232473;28;20459;-48
2022/06/18 11:21:34;;;;;;;7.80;1.40;;;;;;;32.15;34.91;101757.66;5232750;28;20509;-50
2022/06/18 11:24:22;;;;;;;3.30;1.40;;;;;;;32.34;34.89;101757.13;5232584;28;20904;-50
2022/06/18 11:26:59;;;;;;;5.50;1.48;;;;;;;32.57;34.28;101748.34;5233294;28;20409;-49
2022/06/18 11:29:35;;;;;;;2.58;1.40;;;;;;;32.77;34.08;101757.66;5235482;28;20407;-48
2022/06/18 11:32:12;;;;;;;5.00;2.28;;;;;;;32.84;34.40;101750.78;5235988;28;20578;-52
2022/06/18 11:34:49;;;;;;;2.78;1.52;;;;;;;32.68;34.12;101759.31;5232892;28;20409;-50
2022/06/18 11:37:26;;;;;;;4.75;1.67;;;;;;;32.56;34.59;101757.66;5241005;28;20510;-50
2022/06/18 11:40:03;;;;;;;6.82;1.67;;;;;;;32.27;35.07;101762.03;5229394;28;20437;-48
2022/06/18 11:42:43;;;;;;;5.05;2.03;;;;;;;31.73;35.83;101746.91;5237308;28;20442;-51
2022/06/18 11:45:32;;;;;;;7.47;3.38;;;;;;;31.01;36.51;101737.63;5232298;28;20454;-52
2022/06/18 11:48:16;;;;;;;3.78;1.73;;;;;;;30.91;37.04;101767.56;5235063;28;20415;-48
2022/06/18 11:50:55;;;;;;;4.47;1.80;;;;;;;30.66;37.32;101749.94;5235548;28;20402;-51
2022/06/18 11:53:36;;;;;;;6.35;1.77;;;;;;;30.41;37.86;101750.56;5234849;28;20791;-50
2022/06/18 11:56:18;;;;;;;5.13;1.30;;;;;;;29.78;37.87;101671.28;5234278;28;20421;-48
2022/06/18 11:58:58;;;;;;;3.55;1.77;;;;;;;30.30;38.08;101757.03;5233840;28;20434;-49
2022/06/18 12:01:37;;;;;;;3.35;1.63;;;;;;;29.74;38.36;101713.72;5237950;28;20410;-50
2022/06/18 12:04:19;;;;;;;5.43;1.70;;;;;;;29.87;38.73;101765.03;5237556;28;20865;-45
2022/06/18 12:06:57;;;;;;;2.30;1.35;;;;;;;29.84;38.96;101771.00;5239049;28;20417;-50
2022/06/18 12:09:33;;;;;;;3.40;1.70;;;;;;;29.86;38.86;101752.50;5237215;28;20419;-47
2022/06/18 12:12:53;;;;;;;5.40;1.33;;;;;;;29.93;38.91;101754.22;5231157;28;20487;-49
2022/06/18 12:15:36;;;;;;;6.90;1.83;;;;;;;29.82;39.12;101766.88;5233924;28;20411;-48
2022/06/18 12:18:18;;;;;;;6.63;2.80;;;;;;;29.65;39.46;101775.16;5236121;28;20502;-46
2022/06/18 12:21:04;;;;;;;3.33;1.58;;;;;;;29.62;39.36;101753.88;5229617;28;20421;-45
2022/06/18 12:23:47;;;;;;;5.07;2.20;;;;;;;29.81;39.34;101752.44;5240174;28;20418;-47